Time;durP1;ratioP1;P1;durP2;ratioP2;P2;SDS_P1;SDS_P2;PMS_P1;PMS_P2;Temp;Humidity;BMP_temperature;BMP_pressure;BME280_temperature;BME280_humidity;BME280_pressure;Samples;Min_cycle;Max_cycle;Signal;HPM_P1;HPM_P2
2023/08/17 00:04:22;;;;;;;2.30;1.00;;;;;;;21.88;61.02;100400.16;10477652;27;96665;-81
2023/08/17 00:09:26;;;;;;;1.70;1.02;;;;;;;22.05;60.74;100404.97;10460053;27;97465;-81
2023/08/17 00:14:30;;;;;;;2.00;1.10;;;;;;;22.20;60.38;100410.84;10460952;27;97870;-81
2023/08/17 00:19:35;;;;;;;1.92;1.08;;;;;;;22.10;60.38;100405.44;10460523;27;99475;-81
2023/08/17 00:24:41;;;;;;;2.08;1.00;;;;;;;21.76;61.36;100397.63;10460816;27;96721;-81
2023/08/17 00:29:45;;;;;;;1.30;0.90;;;;;;;21.41;62.55;100390.66;10481327;27;97816;-81
2023/08/17 00:34:51;;;;;;;1.17;0.90;;;;;;;21.53;61.99;100388.81;10502657;27;96724;-81
2023/08/17 00:39:55;;;;;;;1.25;0.80;;;;;;;21.60;61.80;100392.69;10463387;27;96634;-81
2023/08/17 00:44:58;;;;;;;1.23;0.80;;;;;;;21.53;62.15;100383.47;10459871;27;96878;-81
2023/08/17 00:50:03;;;;;;;1.92;1.10;;;;;;;21.50;62.16;100387.22;10459766;27;96671;-81
2023/08/17 00:55:07;;;;;;;1.40;1.00;;;;;;;21.30;63.12;100393.38;10459627;27;96809;-81
2023/08/17 01:00:13;;;;;;;1.30;0.83;;;;;;;21.41;62.33;100393.34;10460481;27;97492;-81
2023/08/17 01:05:23;;;;;;;1.33;0.90;;;;;;;21.01;63.09;100391.31;10501105;27;96893;-81
2023/08/17 01:10:33;;;;;;;0.98;0.80;;;;;;;20.89;63.72;100385.16;10500670;27;96745;-81
2023/08/17 01:15:38;;;;;;;1.60;1.20;;;;;;;20.61;64.60;100384.75;10501000;27;96795;-81
2023/08/17 01:20:44;;;;;;;1.60;0.90;;;;;;;20.69;64.63;100368.97;10500234;27;96795;-81
2023/08/17 01:25:49;;;;;;;2.50;1.38;;;;;;;20.35;65.61;100368.09;10500863;27;97466;-81
2023/08/17 01:30:58;;;;;;;1.77;1.10;;;;;;;20.41;65.18;100366.78;10499806;27;96823;-81
2023/08/17 01:36:08;;;;;;;2.08;1.08;;;;;;;20.76;64.38;100359.47;10500858;27;96782;-81
2023/08/17 01:41:15;;;;;;;1.83;1.10;;;;;;;20.68;64.52;100353.91;10500071;27;96786;-81
2023/08/17 01:46:19;;;;;;;2.00;1.30;;;;;;;20.23;65.72;100359.19;10499219;27;96970;-81
2023/08/17 01:51:22;;;;;;;2.60;1.20;;;;;;;20.40;65.44;100339.19;10499289;27;96970;-81
2023/08/17 01:56:27;;;;;;;1.98;1.17;;;;;;;20.17;66.23;100340.09;10499749;27;96640;-81
2023/08/17 02:01:30;;;;;;;1.50;1.00;;;;;;;20.26;65.96;100336.69;10486751;27;97649;-81
2023/08/17 02:06:34;;;;;;;1.87;1.13;;;;;;;20.53;64.96;100339.06;10457242;27;97128;-81
2023/08/17 02:11:39;;;;;;;1.52;0.90;;;;;;;20.50;65.08;100334.81;10456919;27;98172;-81
2023/08/17 02:16:42;;;;;;;2.03;1.20;;;;;;;20.65;64.82;100330.06;10456287;27;97019;-81
2023/08/17 02:21:46;;;;;;;2.10;1.30;;;;;;;20.68;64.64;100322.66;10457392;27;97387;-81
2023/08/17 02:26:51;;;;;;;2.70;1.17;;;;;;;20.53;64.86;100312.34;10457265;27;97466;-80
2023/08/17 02:31:54;;;;;;;1.63;1.20;;;;;;;20.43;65.08;100311.38;10456489;27;96975;-80
2023/08/17 02:36:57;;;;;;;1.67;1.08;;;;;;;20.39;65.00;100319.59;10456514;27;96582;-80
2023/08/17 02:42:02;;;;;;;1.73;1.10;;;;;;;20.21;65.65;100318.38;10455427;27;96676;-80
2023/08/17 02:47:06;;;;;;;1.67;1.23;;;;;;;20.22;65.34;100313.88;10455696;27;97544;-80
2023/08/17 02:52:09;;;;;;;1.80;1.10;;;;;;;20.06;65.72;100308.88;10456609;27;97891;-80
2023/08/17 02:57:14;;;;;;;1.42;1.10;;;;;;;20.10;65.58;100326.34;10455660;27;97369;-80
2023/08/17 03:02:17;;;;;;;1.85;1.13;;;;;;;19.98;65.77;100338.00;10475108;27;96662;-80
2023/08/17 03:07:20;;;;;;;1.90;1.27;;;;;;;20.09;65.57;100330.00;10496939;27;96708;-80
2023/08/17 03:12:25;;;;;;;1.67;1.17;;;;;;;20.24;65.47;100325.28;10462579;27;96938;-80
2023/08/17 03:17:29;;;;;;;1.95;1.10;;;;;;;20.36;65.24;100329.69;10455107;27;97752;-80
2023/08/17 03:22:32;;;;;;;2.05;1.10;;;;;;;20.22;65.87;100325.41;10454202;27;96818;-80
2023/08/17 03:27:37;;;;;;;1.65;1.30;;;;;;;20.21;66.01;100317.50;10456372;27;96678;-80
2023/08/17 03:32:41;;;;;;;2.58;1.20;;;;;;;20.31;65.47;100308.69;10453210;27;96819;-81
2023/08/17 03:37:46;;;;;;;3.17;1.67;;;;;;;20.32;65.67;100315.72;10454033;27;96667;-80
2023/08/17 03:42:51;;;;;;;3.15;1.60;;;;;;;20.52;65.60;100307.94;10455154;27;97864;-81
2023/08/17 03:47:54;;;;;;;2.30;1.50;;;;;;;20.33;66.20;100300.53;10474517;22;96995;-81
2023/08/17 03:52:58;;;;;;;2.00;1.60;;;;;;;20.53;65.83;100293.63;10496631;27;96620;-80
2023/08/17 03:58:02;;;;;;;2.72;1.58;;;;;;;20.46;66.15;100289.72;10496212;27;97241;-81
2023/08/17 04:03:06;;;;;;;2.72;1.65;;;;;;;20.56;65.88;100293.38;10490641;27;97764;-80
2023/08/17 04:08:09;;;;;;;2.73;1.80;;;;;;;20.45;66.36;100294.22;10496922;27;97824;-80
2023/08/17 04:13:14;;;;;;;3.20;1.90;;;;;;;20.62;66.00;100295.56;10495782;27;97376;-80
2023/08/17 04:18:17;;;;;;;2.80;1.80;;;;;;;20.57;66.12;100293.25;10482225;27;96912;-80
2023/08/17 04:23:21;;;;;;;4.22;1.75;;;;;;;20.38;66.73;100309.91;10459413;27;96784;-80
2023/08/17 04:28:26;;;;;;;3.35;1.90;;;;;;;20.49;66.82;100330.44;10460644;27;97393;-80
2023/08/17 04:33:29;;;;;;;3.42;1.88;;;;;;;20.37;67.06;100323.38;10460809;27;97395;-80
2023/08/17 04:38:33;;;;;;;2.85;1.77;;;;;;;20.36;67.17;100340.38;10460190;27;96789;-81
2023/08/17 04:43:40;;;;;;;2.97;1.80;;;;;;;20.08;68.30;100357.69;10460181;27;96826;-80
2023/08/17 04:48:44;;;;;;;3.30;2.17;;;;;;;20.23;67.79;100372.56;10481411;27;97763;-80
2023/08/17 04:53:47;;;;;;;4.57;2.83;;;;;;;20.25;68.18;100367.06;10472544;27;97761;-79
2023/08/17 04:58:52;;;;;;;3.50;2.40;;;;;;;20.16;68.92;100376.66;10460079;27;97292;-80
2023/08/17 05:03:55;;;;;;;4.50;2.65;;;;;;;20.08;69.42;100368.38;10459612;27;96994;-80
2023/08/17 05:08:59;;;;;;;4.07;2.60;;;;;;;20.24;68.90;100376.06;10459827;27;96555;-80
2023/08/17 05:14:04;;;;;;;4.63;2.88;;;;;;;20.33;68.62;100370.91;10458041;27;96996;-80
2023/08/17 05:19:08;;;;;;;4.20;2.42;;;;;;;20.42;68.28;100377.34;10458290;27;97039;-80
2023/08/17 05:24:11;;;;;;;4.03;2.17;;;;;;;20.49;68.26;100383.06;10458546;27;96810;-80
2023/08/17 05:29:16;;;;;;;3.63;2.00;;;;;;;20.44;68.58;100372.72;10458467;27;97180;-80
2023/08/17 05:34:19;;;;;;;4.70;2.17;;;;;;;20.38;68.82;100370.53;10458252;27;96674;-80
2023/08/17 05:39:23;;;;;;;4.78;2.58;;;;;;;20.57;68.24;100380.66;10458150;27;96730;-80
2023/08/17 05:44:28;;;;;;;4.18;2.53;;;;;;;20.63;67.89;100380.16;10458236;27;96640;-80
2023/08/17 05:49:31;;;;;;;5.20;2.50;;;;;;;20.68;67.65;100376.16;10486981;27;96973;-80
2023/08/17 05:54:34;;;;;;;3.85;2.38;;;;;;;20.65;67.93;100383.56;10500150;27;96736;-80
2023/08/17 05:59:40;;;;;;;3.20;2.22;;;;;;;20.66;67.88;100375.41;10488535;27;96774;-80
2023/08/17 06:04:43;;;;;;;2.97;2.20;;;;;;;20.62;67.76;100375.78;10456734;27;97702;-80
2023/08/17 06:09:47;;;;;;;3.75;2.38;;;;;;;20.52;68.36;100381.00;10456983;27;96863;-80
2023/08/17 06:14:51;;;;;;;3.25;2.38;;;;;;;20.73;67.66;100376.63;10457455;27;97888;-80
2023/08/17 06:19:55;;;;;;;4.13;2.20;;;;;;;20.71;67.62;100377.72;10457059;27;97262;-80
2023/08/17 06:24:58;;;;;;;3.97;2.30;;;;;;;20.62;67.89;100367.75;10456549;27;96714;-80
2023/08/17 06:30:03;;;;;;;4.38;2.50;;;;;;;20.79;67.43;100372.63;10476223;27;96753;-80
2023/08/17 06:35:08;;;;;;;3.55;2.33;;;;;;;20.90;66.94;100376.13;10474948;27;96837;-80
2023/08/17 06:40:14;;;;;;;4.50;2.38;;;;;;;20.86;66.79;100376.50;10456764;27;96673;-81
2023/08/17 06:45:18;;;;;;;3.33;1.80;;;;;;;20.80;67.17;100367.16;10455656;27;96776;-80
2023/08/17 06:50:22;;;;;;;3.83;2.15;;;;;;;20.68;67.52;100376.16;10482420;27;96788;-80
2023/08/17 06:55:26;;;;;;;3.53;2.42;;;;;;;20.71;67.01;100378.56;10454737;27;96655;-80
2023/08/17 07:00:30;;;;;;;3.75;2.40;;;;;;;20.80;67.26;100379.66;10455801;27;97593;-80
2023/08/17 07:05:34;;;;;;;3.92;2.03;;;;;;;20.99;66.49;100379.88;10455511;27;96694;-80
2023/08/17 07:10:38;;;;;;;3.67;2.30;;;;;;;20.99;66.84;100383.44;10455804;27;96569;-81
2023/08/17 07:15:43;;;;;;;3.13;2.00;;;;;;;21.12;66.43;100383.28;10454938;27;96644;-80
2023/08/17 07:20:46;;;;;;;2.65;1.80;;;;;;;21.18;66.27;100381.00;10454957;27;96614;-80
2023/08/17 07:25:50;;;;;;;2.70;1.88;;;;;;;21.14;66.68;100381.31;10455667;27;97469;-81
2023/08/17 07:30:55;;;;;;;3.10;2.28;;;;;;;21.24;66.40;100387.69;10458148;27;96708;-80
2023/08/17 07:35:58;;;;;;;3.50;2.25;;;;;;;21.26;66.50;100391.06;10497124;27;97583;-80
2023/08/17 07:41:02;;;;;;;4.32;2.40;;;;;;;21.22;66.17;100393.16;10490436;27;96680;-81
2023/08/17 07:46:08;;;;;;;4.35;1.95;;;;;;;21.19;66.72;100396.06;10453075;27;96604;-80
2023/08/17 07:51:11;;;;;;;3.10;2.17;;;;;;;21.31;66.66;100407.63;10456240;27;96742;-80
2023/08/17 07:56:15;;;;;;;3.63;2.20;;;;;;;21.48;66.23;100407.09;10461683;27;96800;-80
2023/08/17 08:01:19;;;;;;;3.55;2.03;;;;;;;21.44;66.70;100411.84;10461306;27;96668;-80
2023/08/17 08:06:23;;;;;;;3.63;2.00;;;;;;;21.44;66.67;100405.63;10460909;27;96766;-81
2023/08/17 08:11:29;;;;;;;2.65;1.92;;;;;;;21.48;66.70;100405.25;10461369;27;97167;-80
2023/08/17 08:16:35;;;;;;;3.38;2.03;;;;;;;21.77;65.96;100389.47;10460885;27;96882;-80
2023/08/17 08:21:38;;;;;;;4.18;2.25;;;;;;;21.98;66.01;100395.75;10461405;27;96636;-81
2023/08/17 08:26:41;;;;;;;3.77;2.43;;;;;;;21.96;66.06;100383.41;10460289;27;96844;-80
2023/08/17 08:31:46;;;;;;;3.88;2.22;;;;;;;22.16;65.24;100388.81;10466183;27;97539;-81
2023/08/17 08:36:50;;;;;;;4.15;2.58;;;;;;;22.25;64.87;100379.97;10459178;27;97558;-81
2023/08/17 08:41:55;;;;;;;7.00;2.58;;;;;;;22.44;64.60;100381.91;10460170;27;96933;-81
2023/08/17 08:46:59;;;;;;;3.53;2.55;;;;;;;22.73;64.01;100361.47;10459408;27;97014;-81
2023/08/17 08:52:08;;;;;;;2.80;2.00;;;;;;;23.18;62.92;100361.94;10460508;27;97306;-81
2023/08/17 08:57:14;;;;;;;3.85;2.28;;;;;;;23.95;61.21;100350.28;10459970;27;97047;-81
2023/08/17 09:02:19;;;;;;;3.50;2.38;;;;;;;24.75;58.88;100362.28;10458617;27;96615;-81
2023/08/17 09:07:23;;;;;;;3.15;2.08;;;;;;;25.56;56.78;100349.78;10459661;27;97079;-81
2023/08/17 09:12:27;;;;;;;3.88;2.20;;;;;;;25.41;56.76;100365.66;10460659;27;96973;-82
2023/08/17 09:17:44;;;;;;;3.65;2.15;;;;;;;26.65;53.96;100369.94;10459090;27;97041;-82
2023/08/17 09:22:49;;;;;;;2.42;1.63;;;;;;;27.00;52.94;100361.69;10459915;27;96736;-82
2023/08/17 09:27:58;;;;;;;2.22;1.80;;;;;;;27.52;51.59;100348.84;10459649;27;97116;-81
2023/08/17 09:33:05;;;;;;;3.00;1.77;;;;;;;26.85;52.82;100341.66;10479102;27;96893;-82
2023/08/17 09:38:08;;;;;;;2.65;1.50;;;;;;;27.40;51.46;100335.81;10500701;27;96740;-81
2023/08/17 09:43:13;;;;;;;;;;;;;;;27.42;51.12;100333.78;10468225;27;97054;-82
2023/08/17 09:48:19;;;;;;;3.58;1.80;;;;;;;27.47;50.63;100336.84;10457503;27;97238;-81
2023/08/17 09:53:22;;;;;;;2.42;1.70;;;;;;;27.96;49.76;100325.09;10458054;27;96833;-81
2023/08/17 09:58:26;;;;;;;1.50;1.30;;;;;;;28.57;48.64;100322.63;10458391;27;96894;-82
2023/08/17 10:03:35;;;;;;;2.55;1.58;;;;;;;29.27;47.94;100310.00;10458811;27;96614;-82
2023/08/17 10:08:44;;;;;;;2.80;2.10;;;;;;;28.81;47.35;100306.28;10457870;27;96606;-81
2023/08/17 10:13:52;;;;;;;2.38;1.73;;;;;;;28.31;48.78;100305.78;10457071;27;96679;-81
2023/08/17 10:19:06;;;;;;;4.05;1.95;;;;;;;28.03;48.74;100297.16;10455961;27;97113;-81
2023/08/17 10:24:10;;;;;;;2.30;1.70;;;;;;;28.12;49.10;100298.00;10457423;27;97284;-82
2023/08/17 10:29:14;;;;;;;2.25;1.60;;;;;;;28.50;48.20;100304.56;10456642;27;96831;-82
2023/08/17 10:34:21;;;;;;;2.00;1.60;;;;;;;28.48;47.43;100302.00;10489071;27;96641;-82
2023/08/17 10:39:26;;;;;;;1.48;1.30;;;;;;;27.66;47.23;100317.59;10498625;27;96732;-82
2023/08/17 10:44:45;;;;;;;2.75;1.60;;;;;;;28.40;46.63;100310.16;10499091;27;96983;-81
2023/08/17 10:49:51;;;;;;;2.70;1.92;;;;;;;28.28;47.54;100319.63;10455528;27;96863;-81
2023/08/17 10:54:55;;;;;;;2.83;1.65;;;;;;;28.02;47.88;100324.41;10414928;28;97556;-81
2023/08/17 11:00:26;;;;;;;3.17;2.33;;;;;;;27.61;48.75;100337.03;10414356;28;96694;-81
2023/08/17 11:05:42;;;;;;;2.78;1.75;;;;;;;27.90;47.36;100333.88;10368511;27;98066;-81
2023/08/17 11:10:49;;;;;;;2.25;1.50;;;;;;;28.17;46.09;100321.84;10413084;28;97197;-82
2023/08/17 11:15:54;;;;;;;2.42;1.70;;;;;;;28.57;46.91;100325.34;10413694;28;96778;-81
2023/08/17 11:20:59;;;;;;;2.78;1.85;;;;;;;28.33;47.52;100316.44;10413507;28;96722;-81
2023/08/17 11:26:04;;;;;;;3.65;2.22;;;;;;;28.13;48.28;100314.06;10412744;27;96733;-81
2023/08/17 11:31:09;;;;;;;2.47;1.60;;;;;;;28.29;47.57;100312.38;10397255;27;96792;-81
2023/08/17 11:36:14;;;;;;;3.25;1.92;;;;;;;27.84;48.27;100315.63;10413743;27;96881;-82
2023/08/17 11:41:18;;;;;;;3.03;2.10;;;;;;;28.03;47.67;100320.69;10413786;27;96727;-82
2023/08/17 11:46:22;;;;;;;2.90;1.65;;;;;;;28.17;46.44;100309.16;10416714;27;98364;-82
2023/08/17 11:51:33;;;;;;;2.63;2.08;;;;;;;28.38;46.80;100312.19;10454630;27;96703;-81
2023/08/17 11:56:38;;;;;;;1.55;1.35;;;;;;;28.59;45.48;100312.47;10454503;27;96801;-81
2023/08/17 12:01:41;;;;;;;1.63;1.13;;;;;;;28.72;43.95;100309.22;10453469;27;97248;-82
2023/08/17 12:06:46;;;;;;;;;;;;;;;28.71;42.20;100318.34;10454830;27;97774;-81
2023/08/17 12:11:49;;;;;;;2.45;1.67;;;;;;;28.63;42.92;100313.81;10454353;27;96975;-82
2023/08/17 12:16:52;;;;;;;2.17;1.40;;;;;;;28.87;42.18;100312.88;10454570;27;96695;-82
2023/08/17 12:21:58;;;;;;;1.33;1.23;;;;;;;28.88;41.11;100314.56;10454188;27;96710;-81
2023/08/17 12:27:04;;;;;;;2.08;1.50;;;;;;;29.03;41.28;100310.13;10453367;27;96758;-82
2023/08/17 12:32:08;;;;;;;2.42;1.50;;;;;;;29.12;41.10;100318.03;10481013;27;96835;-82
2023/08/17 12:37:19;;;;;;;2.17;1.45;;;;;;;29.42;40.93;100310.06;10496378;27;96708;-82
2023/08/17 12:42:22;;;;;;;1.92;1.30;;;;;;;29.47;40.63;100300.38;10502832;27;96713;-82
2023/08/17 12:47:26;;;;;;;1.90;1.10;;;;;;;29.63;40.43;100296.72;10501883;27;98066;-81
2023/08/17 12:52:30;;;;;;;;;;;;;;;29.63;39.67;100294.00;10502478;27;96770;-81
2023/08/17 12:57:33;;;;;;;2.00;1.25;;;;;;;29.90;40.28;100283.41;10501976;27;96892;-82
2023/08/17 13:02:37;;;;;;;2.47;1.38;;;;;;;29.75;39.60;100284.41;10502452;27;96698;-82
2023/08/17 13:07:43;;;;;;;;;;;;;;;29.72;39.65;100260.38;10501699;27;96685;-82
2023/08/17 13:12:47;;;;;;;1.27;1.10;;;;;;;30.11;39.22;100274.59;10502206;27;96698;-82
2023/08/17 13:17:54;;;;;;;2.78;1.25;;;;;;;29.93;38.99;100274.09;10501704;27;96584;-82
2023/08/17 13:22:59;;;;;;;1.20;0.90;;;;;;;30.26;38.67;100273.59;10500632;27;96707;-82
2023/08/17 13:28:02;;;;;;;1.88;1.08;;;;;;;30.06;39.11;100269.72;10501937;27;96691;-82
2023/08/17 13:33:06;;;;;;;1.27;1.00;;;;;;;30.37;38.69;100264.13;10501304;27;98292;-82
2023/08/17 13:38:12;;;;;;;2.05;1.20;;;;;;;30.50;38.12;100267.06;10493671;27;97969;-82
2023/08/17 13:43:16;;;;;;;1.63;1.15;;;;;;;30.46;38.25;100268.47;10457831;27;96687;-82
2023/08/17 13:48:19;;;;;;;;;;;;;;;30.65;37.13;100267.03;10459080;27;96865;-82
2023/08/17 13:53:24;;;;;;;1.17;0.90;;;;;;;30.77;38.03;100243.81;10458792;27;96827;-82
2023/08/17 13:58:27;;;;;;;1.30;0.80;;;;;;;30.56;37.41;100249.16;10457905;27;96798;-81
2023/08/17 14:03:31;;;;;;;2.22;0.80;;;;;;;30.48;37.72;100243.81;10457962;27;97253;-82
2023/08/17 14:08:36;;;;;;;1.48;0.68;;;;;;;30.55;37.94;100250.19;10457591;27;96893;-82
2023/08/17 14:13:39;;;;;;;2.03;0.75;;;;;;;30.56;38.18;100241.84;10458774;27;96903;-82
2023/08/17 14:18:43;;;;;;;0.70;0.70;;;;;;;30.36;38.89;100245.31;10458256;27;96693;-82
2023/08/17 14:23:48;;;;;;;1.35;0.77;;;;;;;30.35;39.25;100230.91;10456702;27;96879;-82
2023/08/17 14:28:51;;;;;;;1.95;0.88;;;;;;;30.43;39.40;100238.09;10462734;27;98513;-82
2023/08/17 14:33:55;;;;;;;2.03;0.90;;;;;;;30.27;40.20;100229.13;10456107;27;96845;-81
2023/08/17 14:39:00;;;;;;;1.10;0.70;;;;;;;30.34;39.92;100231.09;10456522;27;96717;-82
2023/08/17 14:44:04;;;;;;;1.40;0.85;;;;;;;30.17;39.58;100222.28;10456866;27;96573;-82
2023/08/17 14:49:07;;;;;;;1.08;0.65;;;;;;;30.76;39.24;100228.56;10456639;27;96737;-81
2023/08/17 14:54:12;;;;;;;;;;;;;;;30.52;39.56;100224.25;10456680;27;96664;-82
2023/08/17 14:59:16;;;;;;;2.05;0.90;;;;;;;30.48;40.23;100217.50;10456350;27;96773;-81
2023/08/17 15:04:20;;;;;;;1.85;0.82;;;;;;;30.44;39.96;100220.81;10456174;27;96633;-80
2023/08/17 15:09:30;;;;;;;1.05;0.65;;;;;;;30.28;40.19;100210.97;10456554;27;96732;-82
2023/08/17 15:14:34;;;;;;;1.58;0.80;;;;;;;30.65;39.42;100210.81;10455860;27;96642;-82
2023/08/17 15:19:37;;;;;;;1.13;0.70;;;;;;;30.58;39.77;100209.06;10455941;27;97179;-82
2023/08/17 15:24:45;;;;;;;1.55;0.93;;;;;;;30.52;39.30;100217.97;10454428;27;96644;-81
2023/08/17 15:29:48;;;;;;;1.70;0.80;;;;;;;30.42;40.29;100234.53;10473861;27;97223;-82
2023/08/17 15:34:52;;;;;;;1.05;0.80;;;;;;;30.19;40.45;100233.81;10497546;27;96629;-82
2023/08/17 15:40:00;;;;;;;1.70;1.10;;;;;;;29.04;42.59;100234.06;10465687;27;96759;-82
2023/08/17 15:45:06;;;;;;;2.75;1.25;;;;;;;29.05;43.17;100235.75;10455290;27;96893;-83
2023/08/17 15:50:10;;;;;;;1.65;1.10;;;;;;;29.26;42.98;100245.13;10454730;27;96703;-82
2023/08/17 15:55:15;;;;;;;2.20;1.13;;;;;;;29.41;42.59;100241.44;10455306;27;96673;-82
2023/08/17 16:00:18;;;;;;;1.35;0.85;;;;;;;29.03;43.80;100242.38;10455269;27;96685;-82
2023/08/17 16:05:22;;;;;;;1.88;1.10;;;;;;;28.81;44.10;100251.28;10454292;27;96603;-82
2023/08/17 16:10:27;;;;;;;1.50;0.90;;;;;;;28.66;44.28;100245.75;10455026;27;98234;-82
2023/08/17 16:15:30;;;;;;;1.45;1.02;;;;;;;28.58;44.75;100251.22;10459861;27;98245;-81
2023/08/17 16:20:34;;;;;;;;;;;;;;;28.48;45.25;100250.56;10488708;22;97922;-81
2023/08/17 16:25:43;;;;;;;1.10;0.90;;;;;;;28.45;44.88;100253.63;10503206;27;96794;-82
2023/08/17 16:30:46;;;;;;;2.28;1.15;;;;;;;28.41;45.58;100260.41;10473475;27;96983;-81
2023/08/17 16:35:49;;;;;;;1.60;1.08;;;;;;;28.31;45.73;100258.94;10460485;27;96651;-82
2023/08/17 16:40:54;;;;;;;1.80;0.88;;;;;;;28.44;45.64;100260.06;10482631;27;96791;-82
2023/08/17 16:45:58;;;;;;;3.13;1.45;;;;;;;28.41;45.79;100254.97;10488566;27;96619;-82
2023/08/17 16:51:01;;;;;;;1.48;1.05;;;;;;;28.37;45.84;100255.53;10460898;27;96712;-82
2023/08/17 16:56:07;;;;;;;1.88;1.05;;;;;;;28.27;46.66;100262.97;10460275;27;97950;-82
2023/08/17 17:01:11;;;;;;;2.47;1.10;;;;;;;27.91;46.78;100241.72;10460057;27;96746;-81
2023/08/17 17:06:17;;;;;;;1.50;0.95;;;;;;;27.57;47.91;100248.31;10500551;27;96752;-82
2023/08/17 17:11:24;;;;;;;1.83;1.00;;;;;;;27.56;47.51;100257.44;10502084;27;96741;-82
2023/08/17 17:16:27;;;;;;;1.95;1.30;;;;;;;27.53;47.81;100252.38;10500865;27;96803;-81
2023/08/17 17:21:31;;;;;;;1.95;1.20;;;;;;;27.66;47.89;100244.59;10500937;27;97341;-81
2023/08/17 17:26:38;;;;;;;1.90;1.10;;;;;;;27.49;48.56;100240.22;10500960;27;96674;-82
2023/08/17 17:31:41;;;;;;;2.13;1.30;;;;;;;27.34;48.90;100237.31;10501553;27;96630;-81
2023/08/17 17:36:44;;;;;;;2.10;1.13;;;;;;;27.48;48.77;100241.19;10500193;27;96723;-81
2023/08/17 17:41:49;;;;;;;2.20;1.17;;;;;;;27.04;50.54;100237.97;10502142;27;96694;-81
2023/08/17 17:46:53;;;;;;;2.40;1.20;;;;;;;27.01;50.73;100243.63;10500780;27;96931;-81
2023/08/17 17:51:56;;;;;;;1.95;1.13;;;;;;;26.62;51.95;100243.38;10500770;27;96719;-81
2023/08/17 17:57:01;;;;;;;2.60;1.40;;;;;;;26.81;51.64;100248.50;10498745;27;97042;-82
2023/08/17 18:02:04;;;;;;;2.28;1.08;;;;;;;26.68;51.99;100261.59;10500109;27;96748;-81
2023/08/17 18:07:08;;;;;;;3.17;1.42;;;;;;;26.46;52.80;100267.59;10500194;27;97168;-81
2023/08/17 18:12:13;;;;;;;;;;;;;;;26.41;53.75;100259.13;10499358;27;97248;-81
2023/08/17 18:17:17;;;;;;;2.20;1.30;;;;;;;26.29;53.66;100270.31;10499495;27;97019;-82
2023/08/17 18:22:21;;;;;;;1.55;1.10;;;;;;;26.25;53.96;100267.09;10499510;27;96673;-81
2023/08/17 18:27:28;;;;;;;2.35;1.38;;;;;;;26.07;54.92;100277.13;10489571;27;96718;-82
2023/08/17 18:32:32;;;;;;;3.53;1.27;;;;;;;26.00;55.27;100288.69;10495215;27;98037;-81
2023/08/17 18:37:35;;;;;;;;;;;;;;;25.90;56.83;100281.53;10498004;27;96642;-81
2023/08/17 18:42:40;;;;;;;1.88;1.45;;;;;;;25.72;56.25;100299.63;10498654;27;96665;-81
2023/08/17 18:47:46;;;;;;;2.40;1.15;;;;;;;25.72;56.52;100293.38;10459919;27;97526;-81
2023/08/17 18:52:49;;;;;;;1.10;0.80;;;;;;;25.53;56.88;100298.88;10456680;27;97133;-81
2023/08/17 18:57:55;;;;;;;1.92;1.00;;;;;;;25.23;57.82;100291.16;10456001;27;96635;-80
2023/08/17 19:02:58;;;;;;;1.67;1.00;;;;;;;25.36;57.50;100302.44;10456541;27;96821;-81
2023/08/17 19:08:02;;;;;;;2.13;1.05;;;;;;;25.19;57.94;100300.56;10456088;27;96733;-82
2023/08/17 19:13:08;;;;;;;1.90;1.10;;;;;;;24.92;58.97;100306.78;10455721;27;98008;-81
2023/08/17 19:18:11;;;;;;;1.60;0.98;;;;;;;24.98;58.68;100302.66;10476047;27;98349;-81
2023/08/17 19:23:15;;;;;;;1.55;1.02;;;;;;;24.91;59.13;100312.34;10455798;27;96983;-81
2023/08/17 19:28:20;;;;;;;2.10;1.27;;;;;;;24.97;58.84;100303.63;10454975;27;96780;-81
2023/08/17 19:33:26;;;;;;;1.75;1.00;;;;;;;24.93;58.84;100299.56;10454950;27;96696;-80
2023/08/17 19:38:29;;;;;;;2.70;1.27;;;;;;;24.98;58.83;100314.28;10454377;27;97310;-81
2023/08/17 19:43:34;;;;;;;2.00;1.10;;;;;;;24.83;59.36;100338.16;10454902;27;96763;-81
2023/08/17 19:48:37;;;;;;;1.30;0.90;;;;;;;24.84;59.49;100341.72;10458042;27;97163;-81
2023/08/17 19:53:41;;;;;;;2.05;1.00;;;;;;;24.72;59.92;100330.25;10462505;27;96710;-81
2023/08/17 19:58:46;;;;;;;1.40;0.93;;;;;;;24.75;59.70;100331.81;10461605;27;97034;-81
2023/08/17 20:03:50;;;;;;;1.45;1.00;;;;;;;24.56;60.30;100323.84;10461879;27;97808;-81
2023/08/17 20:08:53;;;;;;;2.65;1.10;;;;;;;24.62;59.80;100326.78;10461721;27;96906;-81
2023/08/17 20:13:59;;;;;;;2.20;1.55;;;;;;;24.51;60.33;100321.59;10462381;27;97721;-81
2023/08/17 20:19:02;;;;;;;2.50;1.40;;;;;;;24.62;59.87;100325.91;10460722;27;97522;-81
2023/08/17 20:24:08;;;;;;;3.07;1.40;;;;;;;24.68;59.51;100336.09;10483469;27;97402;-81
2023/08/17 20:29:13;;;;;;;2.35;1.30;;;;;;;24.71;59.52;100341.19;10469182;27;96720;-81
2023/08/17 20:34:16;;;;;;;1.52;1.10;;;;;;;24.70;59.71;100351.13;10460518;27;96621;-81
2023/08/17 20:39:19;;;;;;;2.60;1.47;;;;;;;24.71;59.70;100358.19;10460415;27;96868;-80
2023/08/17 20:44:24;;;;;;;2.30;1.30;;;;;;;24.74;59.63;100354.34;10461006;27;97621;-81
2023/08/17 20:49:29;;;;;;;1.80;1.48;;;;;;;24.71;59.81;100351.94;10460238;27;96845;-82
2023/08/17 20:54:32;;;;;;;2.05;1.30;;;;;;;24.72;59.80;100353.66;10460272;27;97102;-81
2023/08/17 20:59:37;;;;;;;1.80;1.00;;;;;;;24.59;60.35;100347.75;10459224;27;96762;-81
2023/08/17 21:04:40;;;;;;;2.53;1.50;;;;;;;24.45;61.18;100351.75;10460509;27;96754;-80
2023/08/17 21:09:44;;;;;;;2.13;1.23;;;;;;;24.52;61.14;100347.50;10460017;27;96824;-81
2023/08/17 21:14:49;;;;;;;2.67;1.25;;;;;;;24.65;60.59;100357.94;10459426;27;96573;-80
2023/08/17 21:19:52;;;;;;;2.10;1.40;;;;;;;24.63;60.86;100350.03;10457565;27;97302;-80
2023/08/17 21:24:57;;;;;;;1.70;1.10;;;;;;;24.54;60.98;100353.59;10459000;27;97429;-81
2023/08/17 21:30:03;;;;;;;1.23;1.10;;;;;;;24.50;61.18;100348.63;10473706;27;96885;-81
2023/08/17 21:35:07;;;;;;;1.70;1.15;;;;;;;24.33;61.44;100352.06;10485549;27;96716;-81
2023/08/17 21:40:11;;;;;;;;;;;;;;;24.39;61.79;100370.34;10459025;27;97936;-81
2023/08/17 21:45:16;;;;;;;2.78;1.23;;;;;;;24.37;61.04;100367.81;10457871;27;96706;-81
2023/08/17 21:50:19;;;;;;;2.58;1.42;;;;;;;24.29;61.43;100373.03;10458383;27;97377;-80
2023/08/17 21:55:23;;;;;;;2.05;1.20;;;;;;;24.23;61.44;100387.03;10501264;27;97825;-80
2023/08/17 22:00:27;;;;;;;2.43;1.30;;;;;;;24.13;61.75;100377.28;10500458;27;96552;-81
2023/08/17 22:05:31;;;;;;;1.95;1.20;;;;;;;23.94;62.09;100382.69;10499840;27;97317;-80
2023/08/17 22:10:36;;;;;;;2.17;1.10;;;;;;;23.83;62.44;100386.34;10498051;27;96561;-80
2023/08/17 22:15:41;;;;;;;2.00;1.40;;;;;;;23.65;63.03;100390.72;10499944;27;96786;-80
2023/08/17 22:20:44;;;;;;;2.92;1.35;;;;;;;23.71;62.70;100379.44;10498932;27;96818;-80
2023/08/17 22:25:48;;;;;;;2.53;1.27;;;;;;;23.81;62.49;100388.34;10486573;27;96703;-80
2023/08/17 22:31:03;;;;;;;2.97;1.60;;;;;;;23.84;62.51;100387.22;10456859;27;97556;-80
2023/08/17 22:36:06;;;;;;;2.17;1.25;;;;;;;23.71;62.87;100387.50;10456669;27;96998;-80
2023/08/17 22:41:10;;;;;;;2.50;1.30;;;;;;;23.67;62.74;100394.13;10456619;27;97743;-80
2023/08/17 22:46:15;;;;;;;1.83;1.10;;;;;;;23.67;62.76;100399.50;10457225;27;96872;-80
2023/08/17 22:51:18;;;;;;;1.08;0.98;;;;;;;23.61;63.11;100390.16;10456228;27;96747;-80
2023/08/17 22:56:22;;;;;;;2.30;1.13;;;;;;;23.77;62.65;100373.47;10455982;27;96738;-80
2023/08/17 23:01:26;;;;;;;1.77;1.20;;;;;;;23.88;62.43;100351.84;10455545;27;97195;-81
2023/08/17 23:06:30;;;;;;;2.65;1.30;;;;;;;23.67;62.88;100346.63;10455457;27;96741;-81
2023/08/17 23:11:33;;;;;;;1.57;1.13;;;;;;;23.70;62.63;100332.06;10455534;27;97074;-81
2023/08/17 23:16:38;;;;;;;2.13;1.17;;;;;;;23.79;62.43;100316.91;10458227;27;96892;-81
2023/08/17 23:21:42;;;;;;;1.58;1.20;;;;;;;23.88;62.18;100332.16;10454874;27;98059;-81
2023/08/17 23:26:45;;;;;;;2.47;1.30;;;;;;;23.88;62.17;100345.59;10454938;27;97103;-80